Time;durP1;ratioP1;P1;durP2;ratioP2;P2;SDS_P1;SDS_P2;PMS_P1;PMS_P2;Temp;Humidity;BMP_temperature;BMP_pressure;BME280_temperature;BME280_humidity;BME280_pressure;Samples;Min_cycle;Max_cycle;Signal;HPM_P1;HPM_P2
2023/02/21 02:15:36;;;;;;;12.80;8.43;;;9.20;99.90;;;;;;5046040;28;20387;-81
2023/02/21 02:18:44;;;;;;;14.27;9.90;;;9.00;22.40;;;;;;5044409;28;20438;-82
2023/02/21 02:21:44;;;;;;;15.30;9.07;;;9.10;22.30;;;;;;5044046;28;20431;-81
2023/02/21 02:24:35;;;;;;;11.90;7.60;;;9.30;99.90;;;;;;5044046;28;20507;-81
2023/02/21 02:27:33;;;;;;;13.50;9.27;;;9.00;10.10;;;;;;5041999;28;20470;-82
2023/02/21 02:30:51;;;;;;;11.47;8.23;;;9.10;9.70;;;;;;5023316;28;20427;-82
2023/02/21 02:33:55;;;;;;;14.87;9.33;;;9.10;8.20;;;;;;5039653;28;20458;-82
2023/02/21 02:36:29;;;;;;;13.00;9.70;;;9.10;1.00;;;;;;5039647;28;20471;-83
2023/02/21 02:39:05;;;;;;;13.17;9.30;;;9.40;17.00;;;;;;5040225;28;20429;-83
2023/02/21 02:41:42;;;;;;;9.70;7.50;;;9.20;1.00;;;;;;5039131;28;20489;-82
2023/02/21 02:44:16;;;;;;;12.53;8.20;;;9.30;1.00;;;;;;5039547;28;20439;-83
2023/02/21 02:46:46;;;;;;;16.70;9.30;;;10.30;1.00;;;;;;5039785;28;20989;-83
2023/02/21 02:49:19;;;;;;;11.23;8.63;;;9.30;1.00;;;;;;5042562;28;20411;-82
2023/02/21 02:51:47;;;;;;;12.57;8.73;;;9.30;1.00;;;;;;5045089;28;20439;-82
2023/02/21 02:54:14;;;;;;;13.70;9.57;;;;;;;;;;5045178;28;20487;-82
2023/02/21 02:56:41;;;;;;;14.80;9.73;;;9.30;1.00;;;;;;5044848;28;20447;-82
2023/02/21 02:59:11;;;;;;;13.73;9.40;;;9.20;40.40;;;;;;5044541;28;20482;-83
2023/02/21 03:02:00;;;;;;;10.93;8.10;;;9.20;40.70;;;;;;5041875;28;20511;-82
2023/02/21 03:05:11;;;;;;;15.07;9.73;;;9.30;1.00;;;;;;5047028;28;20428;-81
2023/02/21 03:07:51;;;;;;;15.37;10.00;;;9.20;1.00;;;;;;5018211;28;20443;-81
2023/02/21 03:10:27;;;;;;;16.90;8.47;;;9.20;1.00;;;;;;5040298;28;20800;-82
2023/02/21 03:13:03;;;;;;;11.57;8.50;;;9.20;1.00;;;;;;5039478;28;20441;-82
2023/02/21 03:15:38;;;;;;;11.83;8.70;;;9.30;1.00;;;;;;5039677;28;20500;-82
2023/02/21 03:18:12;;;;;;;12.73;9.13;;;9.30;1.00;;;;;;5039851;28;20983;-82
2023/02/21 03:20:41;;;;;;;12.13;8.37;;;9.30;1.00;;;;;;5040343;28;20446;-82
2023/02/21 03:23:14;;;;;;;13.07;10.40;;;9.30;1.00;;;;;;5039745;28;20451;-83
2023/02/21 03:25:42;;;;;;;13.10;8.50;;;9.40;1.00;;;;;;5039807;28;20536;-83
2023/02/21 03:28:09;;;;;;;12.13;8.67;;;9.50;1.00;;;;;;5039899;28;20447;-82
2023/02/21 03:30:36;;;;;;;14.27;9.40;;;9.50;1.00;;;;;;5039684;28;21003;-82
2023/02/21 03:35:31;;;;;;;12.40;8.60;;;9.60;1.00;;;;;;5039543;28;20522;-82
2023/02/21 03:37:58;;;;;;;14.17;9.47;;;9.60;1.00;;;;;;5040028;28;20417;-82
2023/02/21 03:40:29;;;;;;;11.20;8.30;;;9.60;1.00;;;;;;5039347;28;20796;-82
2023/02/21 03:42:57;;;;;;;10.60;8.80;;;9.60;1.00;;;;;;5039494;28;20432;-82
2023/02/21 03:45:24;;;;;;;10.33;7.90;;;9.50;1.00;;;;;;5039072;28;20433;-82
2023/02/21 03:47:51;;;;;;;11.57;9.07;;;9.60;1.00;;;;;;5040172;28;20451;-82
2023/02/21 03:50:18;;;;;;;10.43;8.43;;;9.60;1.00;;;;;;5040947;28;20444;-82
2023/02/21 03:52:45;;;;;;;11.00;7.93;;;9.60;1.00;;;;;;5040301;28;20419;-82
2023/02/21 03:55:12;;;;;;;14.10;8.77;;;9.40;1.00;;;;;;5042339;28;20468;-82
2023/02/21 03:57:40;;;;;;;14.17;8.70;;;9.60;1.00;;;;;;5040893;28;21010;-82
2023/02/21 04:00:08;;;;;;;11.90;9.70;;;9.70;1.00;;;;;;5039629;28;20490;-81
2023/02/21 04:02:35;;;;;;;13.20;9.50;;;9.70;1.00;;;;;;5039067;28;20457;-82
2023/02/21 04:05:02;;;;;;;13.47;8.20;;;9.60;1.00;;;;;;5039307;28;20989;-82
2023/02/21 04:07:28;;;;;;;11.53;8.27;;;9.70;1.00;;;;;;5038672;28;20561;-82
2023/02/21 04:09:55;;;;;;;10.40;7.70;;;9.70;1.00;;;;;;5041294;28;20451;-82
2023/02/21 04:12:22;;;;;;;12.73;8.30;;;9.70;1.00;;;;;;5042160;28;20874;-82
2023/02/21 04:14:51;;;;;;;12.00;9.70;;;9.80;1.00;;;;;;5042056;28;20553;-82
2023/02/21 04:17:18;;;;;;;11.40;8.07;;;9.70;1.00;;;;;;5043453;28;20454;-82
2023/02/21 04:19:45;;;;;;;10.60;7.93;;;9.70;1.00;;;;;;5045410;28;20475;-82
2023/02/21 04:22:12;;;;;;;13.00;9.67;;;9.70;1.00;;;;;;5048177;28;20425;-82
2023/02/21 04:24:39;;;;;;;10.83;7.93;;;9.80;1.00;;;;;;5049612;28;20482;-81
2023/02/21 04:27:07;;;;;;;12.30;9.53;;;9.80;1.00;;;;;;5058764;28;20477;-81
2023/02/21 04:29:34;;;;;;;12.70;9.67;;;9.80;1.00;;;;;;5060757;28;20459;-82
2023/02/21 04:32:03;;;;;;;12.70;9.50;;;9.80;1.00;;;;;;5055304;28;20494;-82
2023/02/21 04:34:29;;;;;;;11.37;8.07;;;9.80;1.00;;;;;;5056915;28;20833;-83
2023/02/21 04:36:56;;;;;;;12.03;8.80;;;9.80;1.00;;;;;;5047829;28;20531;-83
2023/02/21 04:39:23;;;;;;;14.03;10.10;;;9.80;1.00;;;;;;5050454;28;20456;-82
2023/02/21 04:41:50;;;;;;;14.30;10.53;;;9.80;1.00;;;;;;5051748;28;20516;-81
2023/02/21 04:44:17;;;;;;;14.03;9.60;;;9.80;1.00;;;;;;5052865;28;20495;-82
2023/02/21 04:46:44;;;;;;;11.47;7.70;;;9.80;1.00;;;;;;5052858;28;20464;-82
2023/02/21 04:49:13;;;;;;;17.97;10.70;;;10.00;1.00;;;;;;5045822;28;20955;-82
2023/02/21 04:51:40;;;;;;;21.60;10.30;;;10.00;1.00;;;;;;5044754;28;20434;-82
2023/02/21 04:54:10;;;;;;;13.40;9.70;;;9.70;1.00;;;;;;5042956;28;20489;-83
2023/02/21 04:56:38;;;;;;;14.47;9.90;;;9.50;1.00;;;;;;5045141;28;20502;-83
2023/02/21 04:59:05;;;;;;;13.20;8.77;;;9.60;1.00;;;;;;5044332;28;20428;-83
2023/02/21 05:01:32;;;;;;;16.40;10.50;;;9.50;1.00;;;;;;5045901;28;20462;-82
2023/02/21 05:03:59;;;;;;;15.47;9.67;;;9.50;1.00;;;;;;5058843;28;20477;-81
2023/02/21 05:06:29;;;;;;;14.80;9.43;;;9.40;1.00;;;;;;5063584;22;20507;-83
2023/02/21 05:08:56;;;;;;;14.90;10.07;;;;;;;;;;5040052;28;20414;-85
2023/02/21 05:11:24;;;;;;;18.20;12.47;;;9.20;5.70;;;;;;5039710;28;20444;-84
2023/02/21 05:13:52;;;;;;;16.37;11.10;;;9.40;1.00;;;;;;5038816;28;20495;-84
2023/02/21 05:16:19;;;;;;;16.00;11.10;;;9.30;1.00;;;;;;5039160;28;20571;-83
2023/02/21 05:18:48;;;;;;;16.10;10.17;;;9.30;1.00;;;;;;5040011;28;20626;-83
2023/02/21 05:21:15;;;;;;;19.17;11.87;;;9.30;1.00;;;;;;5038167;28;20505;-84
2023/02/21 05:23:54;;;;;;;19.20;11.03;;;9.30;1.00;;;;;;5041057;28;20818;-84
2023/02/21 05:26:23;;;;;;;15.10;10.40;;;9.30;1.00;;;;;;5039755;28;20441;-83
2023/02/21 05:28:51;;;;;;;14.90;10.17;;;9.30;1.00;;;;;;5039700;28;20450;-83
2023/02/21 05:31:18;;;;;;;15.17;10.30;;;9.30;1.00;;;;;;5039896;28;20448;-84
2023/02/21 05:33:45;;;;;;;17.70;10.50;;;9.30;1.00;;;;;;5040745;28;20468;-84
2023/02/21 05:36:12;;;;;;;18.07;11.20;;;9.30;1.00;;;;;;5045108;28;20551;-83
2023/02/21 05:38:47;;;;;;;14.63;10.60;;;9.30;1.00;;;;;;5049071;28;20857;-84
2023/02/21 05:41:14;;;;;;;15.40;10.53;;;;;;;;;;5041752;28;20441;-84
2023/02/21 05:43:41;;;;;;;18.50;11.83;;;;;;;;;;5039493;28;20799;-84
2023/02/21 05:46:08;;;;;;;16.77;11.50;;;;;;;;;;5040295;28;20447;-84
2023/02/21 05:48:35;;;;;;;20.17;10.60;;;9.20;13.40;;;;;;5041305;28;20483;-85
2023/02/21 05:51:02;;;;;;;15.07;9.80;;;9.20;24.40;;;;;;5039111;28;20951;-84
2023/02/21 05:53:28;;;;;;;14.37;10.40;;;10.00;25.50;;;;;;5038762;28;20441;-84
2023/02/21 05:55:57;;;;;;;15.07;10.50;;;9.10;42.80;;;;;;5038220;28;20534;-84
2023/02/21 05:58:27;;;;;;;20.37;12.20;;;9.10;31.20;;;;;;5038872;28;20792;-84
2023/02/21 06:00:56;;;;;;;15.47;10.77;;;9.10;51.50;;;;;;5043377;28;20434;-84
2023/02/21 06:03:23;;;;;;;15.60;11.10;;;;;;;;;;5041335;28;20419;-84
2023/02/21 06:05:51;;;;;;;19.80;11.60;;;;;;;;;;5043891;28;20424;-84
2023/02/21 06:08:17;;;;;;;17.73;10.90;;;9.00;81.10;;;;;;5043998;28;20434;-85
2023/02/21 06:10:44;;;;;;;18.20;10.70;;;10.60;94.90;;;;;;5044806;28;20483;-84
2023/02/21 06:13:12;;;;;;;15.27;10.07;;;9.00;90.90;;;;;;5048496;28;20490;-83
2023/02/21 06:15:39;;;;;;;16.63;10.50;;;8.90;99.90;;;;;;5047196;28;20916;-84
2023/02/21 06:18:06;;;;;;;15.27;9.43;;;9.10;99.90;;;;;;5048398;28;20427;-84
2023/02/21 06:20:33;;;;;;;16.07;10.20;;;;;;;;;;5045522;28;20447;-84
2023/02/21 06:23:02;;;;;;;20.07;9.87;;;8.90;99.90;;;;;;5040265;28;20454;-84
2023/02/21 06:25:28;;;;;;;20.47;10.20;;;9.10;99.90;;;;;;5039715;28;20871;-84
2023/02/21 06:27:55;;;;;;;14.17;9.60;;;9.10;99.90;;;;;;5039104;28;20466;-84
2023/02/21 06:30:24;;;;;;;12.83;8.93;;;9.20;99.90;;;;;;5042746;28;20424;-84
2023/02/21 06:32:51;;;;;;;17.93;10.20;;;8.80;99.90;;;;;;5038464;28;20453;-84
2023/02/21 06:35:18;;;;;;;18.57;9.90;;;9.10;99.90;;;;;;5039331;28;20482;-84
2023/02/21 06:37:44;;;;;;;12.83;9.10;;;9.40;99.90;;;;;;5040327;28;20531;-84
2023/02/21 06:40:12;;;;;;;15.00;9.70;;;9.10;99.90;;;;;;5040983;28;20416;-85
2023/02/21 06:42:39;;;;;;;14.57;8.10;;;9.00;99.90;;;;;;5040461;28;20481;-84
2023/02/21 06:45:06;;;;;;;17.60;9.23;;;9.00;99.90;;;;;;5040005;28;20493;-84
2023/02/21 06:47:35;;;;;;;13.20;8.00;;;8.80;99.90;;;;;;5042394;28;20989;-86
2023/02/21 06:50:02;;;;;;;12.70;8.27;;;9.20;99.90;;;;;;5042495;28;20423;-86
2023/02/21 06:52:29;;;;;;;16.80;9.53;;;9.40;99.90;;;;;;5045086;28;20504;-86
2023/02/21 06:54:57;;;;;;;16.47;7.10;;;;;;;;;;5055288;28;20454;-86
2023/02/21 06:57:23;;;;;;;20.33;8.17;;;9.30;99.90;;;;;;5052900;28;20539;-86
2023/02/21 06:59:50;;;;;;;16.97;9.20;;;9.30;99.90;;;;;;5039355;28;20505;-87
2023/02/21 07:02:40;;;;;;;16.93;8.00;;;8.90;99.90;;;;;;5042117;28;20434;-87
2023/02/21 07:05:23;;;;;;;12.47;7.50;;;9.10;99.90;;;;;;5043256;28;20450;-85
2023/02/21 07:07:55;;;;;;;22.50;8.10;;;9.10;99.90;;;;;;5042312;28;20456;-86
2023/02/21 07:10:22;;;;;;;12.20;7.07;;;;;;;;;;5046442;28;20447;-86
2023/02/21 07:12:51;;;;;;;25.50;16.07;;;9.10;99.90;;;;;;5047732;28;20435;-85
2023/02/21 07:15:21;;;;;;;16.40;10.60;;;9.10;99.90;;;;;;5047533;28;20933;-86
2023/02/21 07:17:49;;;;;;;11.68;7.32;;;9.10;99.90;;;;;;5054774;28;20440;-86
2023/02/21 07:20:16;;;;;;;11.73;8.13;;;9.00;99.90;;;;;;5051696;28;20197;-86
2023/02/21 07:22:43;;;;;;;12.57;7.87;;;9.10;99.90;;;;;;5048684;28;20456;-86
2023/02/21 07:25:14;;;;;;;12.70;6.97;;;9.10;99.90;;;;;;5052380;28;20424;-86
2023/02/21 07:27:43;;;;;;;12.77;7.50;;;;;;;;;;5055230;28;20474;-86
2023/02/21 07:30:12;;;;;;;14.77;7.90;;;9.10;99.90;;;;;;5051020;28;20413;-86
2023/02/21 07:32:42;;;;;;;15.20;10.60;;;;;;;;;;5046785;28;20457;-87
2023/02/21 07:35:10;;;;;;;10.67;8.00;;;9.20;99.90;;;;;;5046582;28;20476;-86
2023/02/21 07:37:37;;;;;;;35.90;13.90;;;;;;;;;;5049016;28;20511;-86
2023/02/21 07:40:08;;;;;;;14.03;7.70;;;9.10;99.90;;;;;;5049778;28;20910;-87
2023/02/21 07:42:35;;;;;;;10.53;5.90;;;;;;;;;;5051417;28;20429;-86
2023/02/21 07:45:06;;;;;;;11.30;7.43;;;9.20;99.90;;;;;;5053915;28;20444;-86
2023/02/21 07:47:33;;;;;;;18.70;6.93;;;;;;;;;;5054793;28;20443;-86
2023/02/21 07:50:00;;;;;;;11.40;6.30;;;9.20;99.90;;;;;;5053029;28;20482;-85
2023/02/21 07:52:29;;;;;;;9.40;6.20;;;9.00;99.90;;;;;;5056205;28;20455;-85
2023/02/21 07:54:56;;;;;;;6.73;5.00;;;9.20;99.90;;;;;;5051968;28;20463;-86
2023/02/21 07:57:23;;;;;;;10.30;6.07;;;;;;;;;;5052588;28;20518;-85
2023/02/21 07:59:50;;;;;;;9.40;5.50;;;9.30;99.90;;;;;;5061041;28;20426;-82
2023/02/21 08:02:20;;;;;;;10.27;5.60;;;9.30;99.90;;;;;;5060986;28;20502;-82
2023/02/21 08:04:53;;;;;;;9.43;5.00;;;9.30;99.90;;;;;;5061396;28;20425;-81
2023/02/21 08:07:20;;;;;;;8.27;5.57;;;9.40;99.90;;;;;;5045888;28;20454;-85
2023/02/21 08:09:51;;;;;;;8.33;7.23;;;9.40;99.90;;;;;;5044044;28;20456;-85
2023/02/21 08:12:20;;;;;;;5.70;4.30;;;9.30;99.90;;;;;;5047141;28;20481;-85
2023/02/21 08:14:48;;;;;;;5.87;4.57;;;;;;;;;;5046816;28;20513;-85
2023/02/21 08:17:15;;;;;;;4.90;4.10;;;;;;;;;;5045065;28;20447;-87
2023/02/21 08:20:11;;;;;;;6.90;3.63;;;9.30;99.90;;;;;;5045580;28;21066;-87
2023/02/21 08:22:42;;;;;;;5.97;3.40;;;;;;;;;;5055301;28;20422;-86
2023/02/21 08:25:27;;;;;;;3.20;2.90;;;9.50;49.70;;;;;;5047391;28;20423;-87
2023/02/21 08:27:59;;;;;;;2.73;2.53;;;9.50;13.80;;;;;;5050243;28;20491;-88
2023/02/21 08:30:30;;;;;;;2.50;2.30;;;9.60;16.20;;;;;;5053127;28;20419;-88
2023/02/21 08:33:02;;;;;;;2.60;1.93;;;;;;;;;;5050193;28;20415;-88
2023/02/21 08:35:31;;;;;;;2.40;2.00;;;;;;;;;;5054620;28;20442;-88
2023/02/21 08:38:01;;;;;;;2.33;2.13;;;;;;;;;;5049984;28;20484;-88
2023/02/21 09:39:21;;;;;;;3.00;2.57;;;10.00;97.60;;;;;;4920952;29;20495;-87
2023/02/21 10:42:56;;;;;;;6.20;3.57;;;10.90;99.90;;;;;;5010743;22;20488;-81
2023/02/21 10:45:32;;;;;;;5.70;3.67;;;10.60;99.90;;;;;;5025566;28;20407;-83
2023/02/21 10:48:04;;;;;;;5.27;3.40;;;10.60;99.90;;;;;;5024502;28;20407;-80
2023/02/21 10:50:43;;;;;;;7.43;3.03;;;10.60;99.90;;;;;;5021007;28;20861;-80
2023/02/21 10:53:23;;;;;;;2.77;2.43;;;10.60;99.90;;;;;;5019098;28;20480;-80
2023/02/21 10:56:21;;;;;;;4.83;2.70;;;10.60;8.00;;;;;;5022664;28;20572;-82
2023/02/21 10:58:51;;;;;;;3.23;1.93;;;10.80;1.00;;;;;;5018200;28;20468;-82
2023/02/21 11:01:21;;;;;;;6.53;2.63;;;10.50;1.00;;;;;;5016313;28;20460;-81
2023/02/21 11:03:50;;;;;;;4.93;2.10;;;10.60;1.00;;;;;;5015985;28;20423;-81
2023/02/21 11:06:27;;;;;;;3.43;2.40;;;10.60;1.00;;;;;;5016303;28;20804;-82
2023/02/21 11:08:54;;;;;;;1.73;1.50;;;10.60;1.00;;;;;;5016577;28;20429;-81
2023/02/21 11:11:36;;;;;;;7.63;2.00;;;10.40;99.60;;;;;;5015802;28;20433;-81
2023/02/21 11:14:23;;;;;;;2.60;1.93;;;10.70;99.90;;;;;;5016042;28;20454;-81
2023/02/21 11:17:12;;;;;;;4.50;2.20;;;10.70;99.90;;;;;;5019778;28;20452;-81
2023/02/21 11:19:52;;;;;;;2.47;2.00;;;10.70;1.00;;;;;;5019020;28;20490;-80
2023/02/21 11:22:23;;;;;;;3.77;1.97;;;10.80;99.90;;;;;;5021930;28;20446;-80
2023/02/21 11:24:55;;;;;;;4.03;2.27;;;10.70;16.40;;;;;;5025751;28;20520;-82
2023/02/21 11:27:22;;;;;;;6.50;2.70;;;10.80;1.00;;;;;;5021479;28;20448;-82
2023/02/21 11:29:52;;;;;;;1.93;1.73;;;10.70;1.00;;;;;;5017052;28;20883;-81
2023/02/21 11:32:29;;;;;;;3.93;1.47;;;10.60;99.90;;;;;;5017176;28;20533;-83
2023/02/21 11:35:05;;;;;;;2.20;1.85;;;10.60;99.90;;;;;;5021072;28;20346;-82
2023/02/21 11:37:32;;;;;;;3.80;2.40;;;10.70;99.90;;;;;;5018015;28;20685;-82
2023/02/21 11:40:00;;;;;;;7.40;1.67;;;10.70;1.00;;;;;;5017195;28;20969;-82
2023/02/21 11:42:29;;;;;;;7.80;2.20;;;10.80;99.90;;;;;;5015667;28;20480;-81
2023/02/21 11:45:17;;;;;;;6.63;2.20;;;10.70;55.30;;;;;;5016946;28;20811;-82
2023/02/21 11:47:50;;;;;;;5.80;1.97;;;10.80;1.00;;;;;;5017426;28;20833;-82
2023/02/21 11:50:24;;;;;;;4.40;1.70;;;10.80;1.00;;;;;;5016498;28;20452;-81
2023/02/21 11:52:56;;;;;;;7.23;1.43;;;10.60;99.90;;;;;;5016688;28;20839;-81
2023/02/21 11:55:25;;;;;;;7.50;1.90;;;10.70;99.90;;;;;;5016747;28;20846;-81
2023/02/21 11:58:15;;;;;;;4.37;1.80;;;11.00;1.00;;;;;;5016090;28;20454;-82
2023/02/21 12:01:00;;;;;;;5.53;2.07;;;11.10;1.00;;;;;;5016300;28;20814;-81
2023/02/21 12:03:56;;;;;;;5.13;1.97;;;11.20;1.00;;;;;;5016911;28;20477;-83
2023/02/21 12:06:30;;;;;;;3.83;1.90;;;11.20;1.00;;;;;;5017297;28;20462;-82
2023/02/21 12:09:02;;;;;;;2.90;1.67;;;11.00;99.90;;;;;;5018250;28;20507;-82
2023/02/21 12:11:49;;;;;;;4.10;1.90;;;11.00;1.00;;;;;;5017674;28;20448;-82
2023/02/21 12:14:37;;;;;;;5.77;1.90;;;11.10;1.00;;;;;;5018411;28;20444;-82
2023/02/21 12:17:16;;;;;;;6.87;1.90;;;11.10;1.00;;;;;;5018201;28;20537;-81
2023/02/21 12:20:05;;;;;;;8.00;3.37;;;11.10;1.00;;;;;;5018063;28;20774;-82
2023/02/21 12:22:48;;;;;;;3.53;1.87;;;11.00;99.90;;;;;;5017731;28;20466;-84
2023/02/21 12:25:22;;;;;;;9.10;2.77;;;10.90;1.00;;;;;;5017698;28;20438;-82
2023/02/21 12:27:56;;;;;;;8.17;2.43;;;10.80;99.90;;;;;;5018293;28;20974;-83
2023/02/21 12:30:46;;;;;;;10.27;2.80;;;10.90;1.00;;;;;;5025560;28;20475;-81
2023/02/21 12:33:39;;;;;;;4.70;2.17;;;10.80;99.90;;;;;;5029845;28;20911;-84
2023/02/21 12:36:19;;;;;;;3.07;2.00;;;10.70;99.90;;;;;;5025457;28;20465;-83
2023/02/21 12:39:12;;;;;;;3.83;1.87;;;10.70;99.90;;;;;;5024668;28;20404;-83
2023/02/21 12:42:06;;;;;;;6.40;1.97;;;10.80;1.00;;;;;;5027810;28;20480;-80
2023/02/21 12:44:43;;;;;;;5.87;2.03;;;10.80;1.00;;;;;;4991557;28;20507;-82
2023/02/21 12:47:17;;;;;;;7.60;2.57;;;10.90;1.00;;;;;;5019880;28;20519;-81
2023/02/21 12:49:52;;;;;;;5.03;1.93;;;10.90;99.90;;;;;;5024931;28;20436;-80
2023/02/21 12:52:26;;;;;;;8.57;2.87;;;10.90;1.00;;;;;;5029783;28;20465;-81
2023/02/21 12:55:01;;;;;;;5.27;2.50;;;10.90;99.90;;;;;;5033646;28;20452;-81
2023/02/21 12:57:41;;;;;;;9.43;2.73;;;11.00;1.00;;;;;;5039827;28;20544;-80
2023/02/21 13:00:17;;;;;;;6.90;2.70;;;11.20;99.90;;;;;;5036269;28;20450;-80
2023/02/21 13:02:55;;;;;;;8.93;2.70;;;10.80;99.90;;;;;;5033735;28;20492;-80
2023/02/21 13:05:39;;;;;;;9.83;2.10;;;10.80;99.90;;;;;;5032937;28;20468;-81
2023/02/21 13:08:19;;;;;;;6.00;2.70;;;10.70;99.90;;;;;;5033217;28;20442;-80
2023/02/21 13:10:53;;;;;;;8.10;1.87;;;10.70;99.90;;;;;;5020023;28;20441;-80
2023/02/21 13:13:25;;;;;;;7.63;2.43;;;10.80;99.90;;;;;;5020369;28;20477;-81
2023/02/21 13:15:52;;;;;;;6.93;2.20;;;10.80;99.90;;;;;;5019161;28;20473;-79
2023/02/21 13:18:24;;;;;;;5.33;2.33;;;10.70;99.90;;;;;;5022129;28;20449;-80
2023/02/21 13:20:57;;;;;;;8.50;2.27;;;10.70;99.90;;;;;;5028611;28;20437;-81
2023/02/21 13:27:01;;;;;;;6.43;2.50;;;10.80;99.90;;;;;;5023150;28;20456;-80
2023/02/21 13:29:31;;;;;;;12.70;2.90;;;10.60;46.80;;;;;;5024472;28;20436;-80
2023/02/21 13:32:01;;;;;;;8.27;2.60;;;11.50;1.00;;;;;;5021550;28;20472;-81
2023/02/21 13:34:31;;;;;;;5.30;2.63;;;10.80;99.90;;;;;;5021274;28;20454;-79
2023/02/21 13:37:05;;;;;;;11.80;3.07;;;10.90;99.90;;;;;;5020944;28;20484;-82
2023/02/21 13:39:36;;;;;;;12.17;2.53;;;10.70;96.00;;;;;;5022378;28;20437;-81
2023/02/21 13:42:07;;;;;;;6.73;2.60;;;10.70;99.90;;;;;;5020663;28;20841;-81
2023/02/21 13:44:38;;;;;;;7.67;2.20;;;10.80;84.30;;;;;;5020975;28;20913;-81
2023/02/21 13:47:12;;;;;;;2.90;1.73;;;10.80;32.70;;;;;;5023009;28;20435;-83
2023/02/21 13:50:20;;;;;;;7.90;2.70;;;10.70;18.80;;;;;;5020848;28;20438;-83
2023/02/21 13:53:12;;;;;;;44.13;23.23;;;10.70;74.00;;;;;;5020306;28;20947;-81
2023/02/21 13:55:40;;;;;;;12.27;3.20;;;10.80;99.90;;;;;;5020542;28;20436;-83
2023/02/21 13:58:32;;;;;;;5.67;2.03;;;10.90;99.90;;;;;;5021353;28;20481;-81
2023/02/21 14:01:40;;;;;;;6.80;2.93;;;10.80;99.90;;;;;;5015339;28;20511;-81
2023/02/21 14:04:43;;;;;;;6.87;3.00;;;10.70;99.90;;;;;;5020933;28;20441;-82
2023/02/21 14:07:10;;;;;;;4.70;2.33;;;10.80;99.90;;;;;;5028256;28;20407;-80
2023/02/21 14:09:41;;;;;;;6.20;2.27;;;10.70;99.90;;;;;;5030648;28;20473;-80
2023/02/21 14:12:11;;;;;;;9.03;2.83;;;10.70;99.90;;;;;;5025578;28;20488;-83
2023/02/21 14:14:41;;;;;;;6.57;2.10;;;10.60;99.90;;;;;;5021410;28;20455;-83
2023/02/21 14:17:11;;;;;;;5.93;2.10;;;10.70;99.90;;;;;;5020524;28;20211;-81
2023/02/21 14:19:43;;;;;;;10.90;2.70;;;10.70;1.00;;;;;;5019618;28;20499;-82
2023/02/21 14:22:14;;;;;;;9.47;2.50;;;10.70;99.90;;;;;;5019378;28;20522;-81
2023/02/21 14:24:47;;;;;;;8.67;3.40;;;10.80;99.90;;;;;;5018534;28;20929;-81
2023/02/21 14:27:36;;;;;;;8.07;2.53;;;10.70;99.90;;;;;;5019330;28;20440;-82
2023/02/21 14:30:25;;;;;;;7.35;2.40;;;11.00;99.90;;;;;;5018967;28;20953;-80
2023/02/21 14:32:54;;;;;;;9.30;3.03;;;10.80;99.90;;;;;;5020843;28;20230;-82
2023/02/21 14:35:29;;;;;;;14.00;3.57;;;10.80;1.00;;;;;;5027178;28;20431;-81
2023/02/21 14:38:01;;;;;;;10.03;3.53;;;10.70;99.90;;;;;;5028543;28;20541;-79
2023/02/21 14:40:40;;;;;;;9.10;2.23;;;10.70;99.90;;;;;;5025918;28;20438;-79
2023/02/21 14:43:36;;;;;;;5.87;2.50;;;10.60;99.90;;;;;;5024439;28;20480;-80
2023/02/21 14:46:17;;;;;;;4.53;2.27;;;10.50;99.90;;;;;;5016574;28;20435;-80
2023/02/21 14:49:13;;;;;;;6.50;2.50;;;10.50;99.90;;;;;;5026519;28;20440;-80
2023/02/21 14:51:59;;;;;;;7.53;2.97;;;10.40;99.90;;;;;;5025539;28;20520;-80
2023/02/21 14:54:53;;;;;;;7.10;3.67;;;10.60;1.00;;;;;;5021559;28;20504;-79
2023/02/21 14:57:56;;;;;;;7.60;2.33;;;10.40;99.90;;;;;;5022315;28;20446;-82
2023/02/21 15:00:31;;;;;;;10.73;3.53;;;10.40;99.90;;;;;;4997662;28;20441;-83
2023/02/21 15:03:08;;;;;;;13.00;2.93;;;10.40;99.90;;;;;;5021125;28;20499;-82
2023/02/21 15:05:43;;;;;;;12.13;2.70;;;10.30;99.90;;;;;;5020474;28;20440;-81
2023/02/21 15:08:16;;;;;;;9.63;2.80;;;10.20;99.90;;;;;;5020485;28;20875;-81
2023/02/21 15:10:45;;;;;;;14.37;3.60;;;10.30;99.90;;;;;;5020250;28;20423;-81
2023/02/21 15:13:24;;;;;;;11.00;2.93;;;10.30;99.90;;;;;;5021043;28;20440;-82
2023/02/21 15:15:59;;;;;;;7.40;2.67;;;10.30;99.90;;;;;;5028181;28;20496;-81
2023/02/21 15:18:28;;;;;;;9.00;2.70;;;10.40;99.90;;;;;;5021600;28;20408;-82
2023/02/21 15:21:14;;;;;;;6.97;2.60;;;10.40;99.90;;;;;;5020286;28;20532;-81
2023/02/21 15:23:43;;;;;;;12.80;3.87;;;10.10;99.90;;;;;;5019428;28;20494;-82
2023/02/21 15:26:22;;;;;;;10.47;3.10;;;10.30;99.90;;;;;;5021054;28;20439;-82
2023/02/21 15:29:05;;;;;;;6.70;2.30;;;10.30;99.90;;;;;;5021844;28;20428;-82
2023/02/21 15:31:35;;;;;;;9.60;3.03;;;10.20;99.90;;;;;;5021533;28;20479;-82
2023/02/21 15:34:02;;;;;;;11.17;3.83;;;10.30;99.90;;;;;;5021877;28;20913;-82
2023/02/21 15:36:29;;;;;;;12.83;3.20;;;10.20;96.60;;;;;;5024673;28;20505;-80
2023/02/21 15:39:05;;;;;;;13.03;3.80;;;10.30;99.90;;;;;;5029218;28;20444;-79
2023/02/21 15:41:36;;;;;;;12.77;3.03;;;10.20;99.90;;;;;;5025388;28;20455;-81
2023/02/21 15:44:07;;;;;;;10.80;3.13;;;10.20;99.90;;;;;;5026227;28;20446;-82
2023/02/21 15:46:42;;;;;;;7.47;2.80;;;10.10;99.90;;;;;;5023711;28;20505;-81
2023/02/21 15:49:15;;;;;;;10.83;3.00;;;10.10;99.90;;;;;;5021702;28;20509;-82
2023/02/21 15:51:42;;;;;;;11.30;3.00;;;10.10;99.90;;;;;;5019806;28;20843;-83
2023/02/21 15:54:25;;;;;;;9.67;3.83;;;10.10;93.60;;;;;;5019561;28;20444;-82
2023/02/21 15:57:06;;;;;;;12.60;3.50;;;10.10;99.90;;;;;;5023795;28;20447;-80
2023/02/21 15:59:33;;;;;;;8.67;3.13;;;10.00;99.90;;;;;;5022716;28;20436;-80
2023/02/21 16:02:15;;;;;;;7.83;2.73;;;10.00;99.90;;;;;;5024097;28;20504;-81
2023/02/21 16:04:43;;;;;;;9.77;3.73;;;10.00;99.90;;;;;;5029770;28;20417;-82
2023/02/21 16:07:23;;;;;;;13.90;4.30;;;9.90;99.90;;;;;;5032406;28;20420;-82
2023/02/21 16:09:57;;;;;;;6.50;2.47;;;10.00;99.90;;;;;;5029880;28;20529;-82
2023/02/21 16:12:35;;;;;;;9.80;3.40;;;9.90;99.90;;;;;;5025672;28;20996;-81
2023/02/21 16:15:07;;;;;;;13.20;3.37;;;10.00;99.90;;;;;;5020646;28;20921;-81
2023/02/21 16:17:38;;;;;;;12.60;3.30;;;9.90;99.90;;;;;;5020340;28;20471;-82
2023/02/21 16:20:16;;;;;;;7.70;2.87;;;9.90;99.90;;;;;;5020731;28;20508;-80
2023/02/21 16:22:46;;;;;;;11.43;2.43;;;9.80;99.90;;;;;;5020718;28;20476;-82
2023/02/21 16:25:24;;;;;;;7.77;3.53;;;9.80;99.90;;;;;;5020457;28;20426;-79
2023/02/21 16:27:53;;;;;;;6.20;3.50;;;9.80;99.90;;;;;;5020817;28;20411;-82
2023/02/21 16:30:22;;;;;;;7.40;3.20;;;9.70;99.90;;;;;;5021542;28;20434;-83
2023/02/21 16:32:52;;;;;;;8.23;3.60;;;9.70;99.90;;;;;;5021024;28;21102;-82
2023/02/21 16:35:22;;;;;;;7.30;3.23;;;9.60;99.90;;;;;;5021103;28;20518;-83
2023/02/21 16:37:50;;;;;;;10.50;3.63;;;9.70;99.90;;;;;;5022075;28;20467;-80
2023/02/21 16:40:23;;;;;;;15.30;4.30;;;9.60;99.90;;;;;;5021865;28;20508;-81
2023/02/21 16:43:04;;;;;;;12.77;3.80;;;9.50;1.00;;;;;;5045109;22;20698;-83
2023/02/21 16:45:35;;;;;;;21.20;7.77;;;9.30;1.00;;;;;;5027484;28;20465;-82
2023/02/21 16:51:15;;;;;;;11.60;4.00;;;9.50;99.90;;;;;;5037536;28;20476;-83
2023/02/21 16:53:51;;;;;;;10.23;3.50;;;9.60;1.00;;;;;;5029178;28;20634;-82
2023/02/21 16:56:21;;;;;;;12.30;4.20;;;9.60;1.00;;;;;;5029856;28;20480;-84
2023/02/21 16:58:59;;;;;;;11.23;3.40;;;9.50;99.90;;;;;;5023358;28;20890;-83
2023/02/21 17:01:36;;;;;;;6.97;3.70;;;9.20;1.00;;;;;;5022380;28;20434;-85
2023/02/21 17:04:28;;;;;;;17.23;4.77;;;9.50;1.00;;;;;;5021968;28;21029;-84
2023/02/21 17:07:32;;;;;;;14.50;4.23;;;9.40;1.00;;;;;;5022221;28;20456;-84
2023/02/21 17:13:19;;;;;;;13.33;4.30;;;9.20;99.90;;;;;;5021395;28;20498;-83
2023/02/21 17:19:39;;;;;;;11.73;4.33;;;9.40;1.00;;;;;;5012149;28;20426;-86
2023/02/21 17:22:06;;;;;;;19.40;4.17;;;;;;;;;;5024183;28;20516;-85
2023/02/21 17:27:32;;;;;;;11.60;4.17;;;9.50;1.00;;;;;;5019736;28;20465;-84
2023/02/21 17:29:59;;;;;;;18.73;4.50;;;;;;;;;;5023538;28;20799;-84
2023/02/21 17:32:36;;;;;;;;;;;;;;;;;;;;;
2023/02/21 17:35:18;;;;;;;14.27;4.40;;;9.40;99.90;;;;;;5022174;28;20623;-84
2023/02/21 17:38:11;;;;;;;15.37;5.00;;;9.40;99.90;;;;;;5022272;28;20311;-83
2023/02/21 17:41:16;;;;;;;10.83;3.47;;;9.40;1.00;;;;;;5021985;28;20798;-83
2023/02/21 17:44:18;;;;;;;11.47;4.20;;;9.30;99.90;;;;;;5021223;28;20497;-84
2023/02/21 17:47:13;;;;;;;11.13;4.00;;;9.70;99.90;;;;;;5022451;28;20407;-84
2023/02/21 17:49:49;;;;;;;10.90;5.50;;;9.30;99.90;;;;;;5023349;28;20424;-85
2023/02/21 17:56:00;;;;;;;8.60;3.63;;;9.60;1.00;;;;;;5002597;28;20445;-83
2023/02/21 18:02:15;;;;;;;12.77;4.23;;;9.30;99.90;;;;;;4946951;28;20528;-82
2023/02/21 18:14:41;;;;;;;8.60;3.70;;;9.50;1.00;;;;;;5000692;28;20493;-84
2023/02/21 18:17:23;;;;;;;9.73;3.60;;;9.40;99.90;;;;;;5024858;28;20463;-83
2023/02/21 18:19:58;;;;;;;11.13;4.70;;;9.50;1.00;;;;;;5023463;28;20393;-83
2023/02/21 18:22:43;;;;;;;11.17;4.27;;;9.50;1.00;;;;;;5023286;28;20437;-83
2023/02/21 18:28:26;;;;;;;12.67;4.13;;;9.40;1.00;;;;;;5019258;28;20444;-85